Time;durP1;ratioP1;P1;durP2;ratioP2;P2;SDS_P1;SDS_P2;PMS_P1;PMS_P2;Temp;Humidity;BMP_temperature;BMP_pressure;BME280_temperature;BME280_humidity;BME280_pressure;Samples;Min_cycle;Max_cycle;Signal;HPM_P1;HPM_P2
2022/07/08 00:00:33;;;;;;;3.42;1.23;;;;;;;;;;4991256;28;20036;-75
2022/07/08 00:02:58;;;;;;;4.10;0.90;;;;;;;;;;4991881;28;20042;-76
2022/07/08 00:05:24;;;;;;;3.55;1.10;;;;;;;;;;4991729;28;20026;-77
2022/07/08 00:07:49;;;;;;;4.20;1.13;;;;;;;;;;4974143;28;20038;-76
2022/07/08 00:10:15;;;;;;;4.32;1.00;;;;;;;;;;4991798;28;20023;-77
2022/07/08 00:12:41;;;;;;;3.00;1.17;;;;;;;;;;4991661;28;20137;-75
2022/07/08 00:15:08;;;;;;;4.72;1.20;;;;;;;;;;4991386;28;20026;-77
2022/07/08 00:17:34;;;;;;;2.78;1.27;;;;;;;;;;4991843;28;20030;-77
2022/07/08 00:19:59;;;;;;;3.53;1.75;;;;;;;;;;4991697;28;20189;-77
2022/07/08 00:22:25;;;;;;;3.97;1.70;;;;;;;;;;4991569;28;20077;-77
2022/07/08 00:24:50;;;;;;;6.43;1.98;;;;;;;;;;4973874;28;20031;-77
2022/07/08 00:27:16;;;;;;;4.43;1.85;;;;;;;;;;4991187;28;20485;-77
2022/07/08 00:29:41;;;;;;;3.33;1.70;;;;;;;;;;4991446;28;20026;-76
2022/07/08 00:32:07;;;;;;;4.00;1.63;;;;;;;;;;4973780;28;20073;-76
2022/07/08 00:34:33;;;;;;;3.63;1.60;;;;;;;;;;4991203;28;20026;-76
2022/07/08 00:36:58;;;;;;;4.30;1.52;;;;;;;;;;4991337;28;20088;-76
2022/07/08 00:39:24;;;;;;;5.00;1.60;;;;;;;;;;4991331;28;20026;-76
2022/07/08 00:41:49;;;;;;;6.60;1.40;;;;;;;;;;4991323;28;20565;-77
2022/07/08 00:44:14;;;;;;;4.32;1.60;;;;;;;;;;4991005;28;20105;-76
2022/07/08 00:46:40;;;;;;;2.42;1.42;;;;;;;;;;4990928;28;20027;-77
2022/07/08 00:49:05;;;;;;;4.80;1.52;;;;;;;;;;4990946;28;20089;-76
2022/07/08 00:51:33;;;;;;;6.25;1.40;;;;;;;;;;4991032;28;20073;-75
2022/07/08 00:53:58;;;;;;;5.05;1.30;;;;;;;;;;4991010;28;20026;-76
2022/07/08 00:56:25;;;;;;;4.35;1.50;;;;;;;;;;4990639;28;20447;-76
2022/07/08 00:58:51;;;;;;;5.15;1.50;;;;;;;;;;4991018;28;20034;-75
2022/07/08 01:01:17;;;;;;;2.85;1.50;;;;;;;;;;4991098;28;20398;-76
2022/07/08 01:03:43;;;;;;;3.88;1.50;;;;;;;;;;4990697;28;20030;-76
2022/07/08 01:06:09;;;;;;;3.35;1.48;;;;;;;;;;4990682;28;20034;-76
2022/07/08 01:08:34;;;;;;;4.68;1.40;;;;;;;;;;4990772;28;20052;-76
2022/07/08 01:11:00;;;;;;;3.47;1.23;;;;;;;;;;4990816;28;20058;-75
2022/07/08 01:13:26;;;;;;;3.13;1.30;;;;;;;;;;4990794;28;20406;-76
2022/07/08 01:15:52;;;;;;;3.63;1.27;;;;;;;;;;4990716;28;20031;-76
2022/07/08 01:18:22;;;;;;;4.18;1.40;;;;;;;;;;4990641;28;20036;-75
2022/07/08 01:20:47;;;;;;;3.70;1.30;;;;;;;;;;4990591;28;20089;-76
2022/07/08 01:23:13;;;;;;;5.32;1.25;;;;;;;;;;4973001;28;20034;-75
2022/07/08 01:25:38;;;;;;;3.80;1.63;;;;;;;;;;4990352;28;20565;-76
2022/07/08 01:28:05;;;;;;;3.72;1.25;;;;;;;;;;4990846;28;20030;-77
2022/07/08 01:30:30;;;;;;;3.83;1.30;;;;;;;;;;4990723;28;20035;-76
2022/07/08 01:32:56;;;;;;;2.25;1.25;;;;;;;;;;4990590;28;20028;-76
2022/07/08 01:35:21;;;;;;;3.72;1.50;;;;;;;;;;4990542;28;20065;-74
2022/07/08 01:37:46;;;;;;;3.83;1.27;;;;;;;;;;4990425;28;20364;-73
2022/07/08 01:40:12;;;;;;;7.32;1.20;;;;;;;;;;4990430;28;20026;-74
2022/07/08 01:42:37;;;;;;;2.20;1.20;;;;;;;;;;4990538;28;20088;-74
2022/07/08 01:45:03;;;;;;;3.90;1.33;;;;;;;;;;4990712;28;20050;-75
2022/07/08 01:47:29;;;;;;;2.20;1.20;;;;;;;;;;4973005;28;20578;-74
2022/07/08 01:49:54;;;;;;;2.88;1.10;;;;;;;;;;4990577;28;20118;-77
2022/07/08 01:52:19;;;;;;;2.45;1.13;;;;;;;;;;4990513;28;20033;-74
2022/07/08 01:54:45;;;;;;;2.63;1.10;;;;;;;;;;4990233;28;20030;-75
2022/07/08 01:57:18;;;;;;;3.25;1.20;;;;;;;;;;4972524;28;20046;-75
2022/07/08 01:59:46;;;;;;;2.38;1.20;;;;;;;;;;4990415;28;20031;-74
2022/07/08 02:02:12;;;;;;;3.88;1.25;;;;;;;;;;4990335;28;20048;-74
2022/07/08 02:04:38;;;;;;;3.65;1.05;;;;;;;;;;4990418;28;20046;-75
2022/07/08 02:07:04;;;;;;;2.65;1.15;;;;;;;;;;4990270;28;20425;-73
2022/07/08 02:09:30;;;;;;;2.22;1.20;;;;;;;;;;4990532;28;20105;-74
2022/07/08 02:14:40;;;;;;;4.45;1.10;;;;;;;;;;4990043;28;20597;-74
2022/07/08 02:17:06;;;;;;;2.50;1.13;;;;;;;;;;4990165;28;20034;-75
2022/07/08 02:19:33;;;;;;;3.28;0.98;;;;;;;;;;4972682;28;20030;-74
2022/07/08 02:21:59;;;;;;;5.85;1.48;;;;;;;;;;4990200;28;20218;-74
2022/07/08 02:24:24;;;;;;;5.32;1.35;;;;;;;;;;4991509;28;20033;-74
2022/07/08 02:26:50;;;;;;;2.72;1.20;;;;;;;;;;4993453;28;20042;-75
2022/07/08 02:29:15;;;;;;;6.55;1.75;;;;;;;;;;4993619;28;20104;-74
2022/07/08 02:31:41;;;;;;;2.42;1.13;;;;;;;;;;4993479;28;20034;-73
2022/07/08 02:34:06;;;;;;;3.72;1.20;;;;;;;;;;4993616;28;20109;-76
2022/07/08 02:36:31;;;;;;;4.05;1.20;;;;;;;;;;4993338;28;20036;-73
2022/07/08 02:38:57;;;;;;;3.80;1.10;;;;;;;;;;4993466;28;20132;-74
2022/07/08 02:41:22;;;;;;;2.30;1.10;;;;;;;;;;4993536;28;20490;-74
2022/07/08 02:43:48;;;;;;;5.57;1.17;;;;;;;;;;4976115;28;20034;-74
2022/07/08 02:46:13;;;;;;;4.28;1.10;;;;;;;;;;4992900;28;20482;-74
2022/07/08 02:48:39;;;;;;;3.88;1.23;;;;;;;;;;4993387;28;20546;-74
2022/07/08 02:51:05;;;;;;;4.00;1.48;;;;;;;;;;4993145;28;20158;-74
2022/07/08 02:53:30;;;;;;;2.78;1.08;;;;;;;;;;4993104;28;20042;-74
2022/07/08 02:55:56;;;;;;;2.47;1.15;;;;;;;;;;4993067;28;20055;-75
2022/07/08 02:58:22;;;;;;;2.97;1.20;;;;;;;;;;4993199;28;20023;-74
2022/07/08 03:00:48;;;;;;;3.63;1.15;;;;;;;;;;4993236;28;20028;-74
2022/07/08 03:03:13;;;;;;;4.72;1.20;;;;;;;;;;4992920;28;20105;-74
2022/07/08 03:05:39;;;;;;;3.03;1.02;;;;;;;;;;4992662;28;20023;-74
2022/07/08 03:08:04;;;;;;;4.13;1.20;;;;;;;;;;4992802;28;20485;-74
2022/07/08 03:10:30;;;;;;;1.95;1.05;;;;;;;;;;4992919;28;20482;-74
2022/07/08 03:12:55;;;;;;;2.97;1.30;;;;;;;;;;4993036;28;20403;-76
2022/07/08 03:15:20;;;;;;;2.83;1.25;;;;;;;;;;4992831;28;20041;-74
2022/07/08 03:17:46;;;;;;;3.38;1.23;;;;;;;;;;4992870;28;20058;-75
2022/07/08 03:20:12;;;;;;;5.85;1.25;;;;;;;;;;4992855;28;20034;-75
2022/07/08 03:22:37;;;;;;;4.53;1.40;;;;;;;;;;4992662;28;20038;-76
2022/07/08 03:25:03;;;;;;;3.40;1.33;;;;;;;;;;4992501;28;20026;-76
2022/07/08 03:27:28;;;;;;;4.40;1.73;;;;;;;;;;4974890;28;20038;-78
2022/07/08 03:29:57;;;;;;;2.55;1.25;;;;;;;;;;4975306;28;20030;-76
2022/07/08 03:32:23;;;;;;;3.03;1.35;;;;;;;;;;4992742;28;20023;-77
2022/07/08 03:34:49;;;;;;;5.38;1.70;;;;;;;;;;4992309;28;20025;-76
2022/07/08 03:37:14;;;;;;;4.03;1.67;;;;;;;;;;4991260;28;20030;-75
2022/07/08 03:39:40;;;;;;;4.50;1.55;;;;;;;;;;4992306;28;20386;-75
2022/07/08 03:42:05;;;;;;;3.08;1.25;;;;;;;;;;4992213;28;20179;-77
2022/07/08 03:44:31;;;;;;;3.67;1.58;;;;;;;;;;4992263;28;20030;-76
2022/07/08 03:46:56;;;;;;;3.65;1.60;;;;;;;;;;4992135;28;20038;-76
2022/07/08 03:49:22;;;;;;;2.88;1.30;;;;;;;;;;4992207;28;20042;-76
2022/07/08 03:51:47;;;;;;;4.75;1.63;;;;;;;;;;4992264;28;20026;-75
2022/07/08 03:54:13;;;;;;;5.32;1.63;;;;;;;;;;4991873;28;20030;-76
2022/07/08 03:56:38;;;;;;;5.00;1.80;;;;;;;;;;4991520;28;20109;-75
2022/07/08 03:59:04;;;;;;;4.95;1.60;;;;;;;;;;4991993;28;20058;-76
2022/07/08 04:01:29;;;;;;;4.07;1.60;;;;;;;;;;4974350;28;20479;-75
2022/07/08 04:03:55;;;;;;;3.90;1.70;;;;;;;;;;4991903;28;20504;-76
2022/07/08 04:06:20;;;;;;;3.92;1.77;;;;;;;;;;4991673;28;20038;-76
2022/07/08 04:08:45;;;;;;;4.55;1.75;;;;;;;;;;4991832;28;20030;-75
2022/07/08 04:11:11;;;;;;;5.07;1.65;;;;;;;;;;4991854;28;20031;-76
2022/07/08 04:13:38;;;;;;;4.97;1.55;;;;;;;;;;4991820;28;20027;-76
2022/07/08 04:16:05;;;;;;;5.07;1.83;;;;;;;;;;4991436;28;20034;-76
2022/07/08 04:18:31;;;;;;;5.50;1.75;;;;;;;;;;4991768;28;20049;-76
2022/07/08 04:20:57;;;;;;;6.15;1.83;;;;;;;;;;4991796;28;20531;-76
2022/07/08 04:23:22;;;;;;;5.40;1.70;;;;;;;;;;4991602;28;20026;-76
2022/07/08 04:25:48;;;;;;;4.38;1.70;;;;;;;;;;4991346;28;20117;-77
2022/07/08 04:28:14;;;;;;;5.43;1.77;;;;;;;;;;4991517;28;20041;-76
2022/07/08 04:30:39;;;;;;;4.28;1.75;;;;;;;;;;4991428;28;20038;-75
2022/07/08 04:33:06;;;;;;;4.22;2.08;;;;;;;;;;4973935;28;20463;-76
2022/07/08 04:35:31;;;;;;;4.43;1.63;;;;;;;;;;4991092;28;20513;-76
2022/07/08 04:37:57;;;;;;;5.10;1.88;;;;;;;;;;4991294;28;20065;-77
2022/07/08 04:40:22;;;;;;;4.97;1.88;;;;;;;;;;4991272;28;20121;-77
2022/07/08 04:42:48;;;;;;;4.60;1.83;;;;;;;;;;4991295;28;20052;-77
2022/07/08 04:45:13;;;;;;;5.38;1.73;;;;;;;;;;4991352;28;20026;-75
2022/07/08 04:47:39;;;;;;;3.67;1.65;;;;;;;;;;4990713;28;20034;-76
2022/07/08 04:50:05;;;;;;;4.03;1.52;;;;;;;;;;4991191;28;20177;-75
2022/07/08 04:52:30;;;;;;;4.28;1.83;;;;;;;;;;4990829;28;20038;-74
2022/07/08 04:54:55;;;;;;;5.18;2.00;;;;;;;;;;4991114;28;20022;-75
2022/07/08 04:57:21;;;;;;;5.95;1.70;;;;;;;;;;4990801;28;20053;-73
2022/07/08 04:59:46;;;;;;;8.05;1.70;;;;;;;;;;4991029;28;20612;-75
2022/07/08 05:02:11;;;;;;;5.57;1.67;;;;;;;;;;4991117;28;20030;-74
2022/07/08 05:04:37;;;;;;;7.03;2.00;;;;;;;;;;4990814;28;20029;-74
2022/07/08 05:07:03;;;;;;;5.65;1.90;;;;;;;;;;4990535;28;20040;-73
2022/07/08 05:09:28;;;;;;;5.22;1.63;;;;;;;;;;4990678;28;20058;-74
2022/07/08 05:11:53;;;;;;;4.78;1.95;;;;;;;;;;4990895;28;20100;-73
2022/07/08 05:14:19;;;;;;;5.72;1.80;;;;;;;;;;4990903;28;20085;-73
2022/07/08 05:16:44;;;;;;;5.75;2.00;;;;;;;;;;4990792;28;20114;-74
2022/07/08 05:19:10;;;;;;;5.05;2.00;;;;;;;;;;4990834;28;20057;-76
2022/07/08 05:21:37;;;;;;;3.97;1.83;;;;;;;;;;4990895;28;20060;-76
2022/07/08 05:24:05;;;;;;;5.75;2.08;;;;;;;;;;4990545;28;20038;-74
2022/07/08 05:26:31;;;;;;;6.45;2.10;;;;;;;;;;4990274;28;20092;-73
2022/07/08 05:28:57;;;;;;;6.68;1.90;;;;;;;;;;4990795;28;20030;-75
2022/07/08 05:31:22;;;;;;;7.78;2.00;;;;;;;;;;4990885;28;20512;-74
2022/07/08 05:33:47;;;;;;;5.40;2.00;;;;;;;;;;4990747;28;20372;-75
2022/07/08 05:36:13;;;;;;;7.43;2.10;;;;;;;;;;4990726;28;20065;-74
2022/07/08 05:38:38;;;;;;;7.38;1.90;;;;;;;;;;4990434;28;20034;-73
2022/07/08 05:41:04;;;;;;;3.75;1.80;;;;;;;;;;4990516;28;20056;-76
2022/07/08 05:43:29;;;;;;;6.80;2.10;;;;;;;;;;4990518;28;20053;-73
2022/07/08 05:45:55;;;;;;;5.32;2.13;;;;;;;;;;4990426;28;20034;-74
2022/07/08 05:48:21;;;;;;;5.93;1.92;;;;;;;;;;4990558;28;20100;-74
2022/07/08 05:50:48;;;;;;;8.95;2.22;;;;;;;;;;4990447;28;20061;-73
2022/07/08 05:53:16;;;;;;;5.25;1.80;;;;;;;;;;4990354;28;20038;-74
2022/07/08 05:55:44;;;;;;;4.95;2.03;;;;;;;;;;4990537;28;20029;-74
2022/07/08 05:58:10;;;;;;;7.40;2.00;;;;;;;;;;4990450;28;20034;-73
2022/07/08 06:00:35;;;;;;;6.32;2.08;;;;;;;;;;4993501;28;20080;-73
2022/07/08 06:03:03;;;;;;;6.55;2.00;;;;;;;;;;4994150;28;20117;-73
2022/07/08 06:05:29;;;;;;;5.22;2.03;;;;;;;;;;4993934;28;20026;-73
2022/07/08 06:07:54;;;;;;;5.38;2.00;;;;;;;;;;4976282;28;20394;-73
2022/07/08 06:10:20;;;;;;;6.90;2.00;;;;;;;;;;4994153;28;20033;-73
2022/07/08 06:12:45;;;;;;;5.78;1.90;;;;;;;;;;4976527;28;20034;-73
2022/07/08 06:15:14;;;;;;;4.50;2.00;;;;;;;;;;4993808;28;20418;-73
2022/07/08 06:17:40;;;;;;;6.25;2.13;;;;;;;;;;4993545;28;20125;-73
2022/07/08 06:20:07;;;;;;;4.07;1.92;;;;;;;;;;4976211;28;20027;-73
2022/07/08 06:22:33;;;;;;;6.90;2.10;;;;;;;;;;4993579;28;20094;-74
2022/07/08 06:24:59;;;;;;;5.15;2.10;;;;;;;;;;4993959;28;20110;-74
2022/07/08 06:27:25;;;;;;;7.57;1.85;;;;;;;;;;4993619;28;20120;-74
2022/07/08 06:29:50;;;;;;;6.57;2.20;;;;;;;;;;4976112;28;20034;-74
2022/07/08 06:32:16;;;;;;;6.72;2.10;;;;;;;;;;4993647;28;20470;-74
2022/07/08 06:34:41;;;;;;;5.80;2.00;;;;;;;;;;4993359;28;20026;-73
2022/07/08 06:37:06;;;;;;;5.90;2.30;;;;;;;;;;4993111;28;20038;-74
2022/07/08 06:39:32;;;;;;;5.05;2.10;;;;;;;;;;4993433;28;20081;-74
2022/07/08 06:41:57;;;;;;;5.75;2.10;;;;;;;;;;4993576;28;20041;-74
2022/07/08 06:44:23;;;;;;;6.47;3.30;;;;;;;;;;4993797;28;20022;-77
2022/07/08 06:46:48;;;;;;;8.82;2.20;;;;;;;;;;4993159;28;20475;-76
2022/07/08 06:49:13;;;;;;;7.63;2.42;;;;;;;;;;4993358;28;20041;-77
2022/07/08 06:51:39;;;;;;;5.43;1.95;;;;;;;;;;4993133;28;20070;-77
2022/07/08 06:56:49;;;;;;;7.25;2.10;;;;;;;;;;4992861;28;20137;-75
2022/07/08 06:59:14;;;;;;;8.93;2.17;;;;;;;;;;4993180;28;20114;-75
2022/07/08 07:01:40;;;;;;;6.85;1.90;;;;;;;;;;4993136;28;20056;-75
2022/07/08 07:04:05;;;;;;;9.80;1.88;;;;;;;;;;4975294;28;20042;-76
2022/07/08 07:06:30;;;;;;;3.92;1.90;;;;;;;;;;4992954;28;20692;-75
2022/07/08 07:08:56;;;;;;;6.55;2.20;;;;;;;;;;4992621;28;20030;-75
2022/07/08 07:11:21;;;;;;;5.80;1.95;;;;;;;;;;4992589;28;20073;-75
2022/07/08 07:13:47;;;;;;;5.60;2.00;;;;;;;;;;4992818;28;20034;-74
2022/07/08 07:16:14;;;;;;;5.60;2.15;;;;;;;;;;4992985;28;20509;-74
2022/07/08 07:18:40;;;;;;;5.88;2.03;;;;;;;;;;4992614;28;20034;-74
2022/07/08 07:21:05;;;;;;;4.80;1.80;;;;;;;;;;4992775;28;20080;-74
2022/07/08 07:23:31;;;;;;;6.72;2.00;;;;;;;;;;4992558;28;20470;-75
2022/07/08 07:25:57;;;;;;;7.05;1.90;;;;;;;;;;4992508;28;20026;-75
2022/07/08 07:28:23;;;;;;;5.32;1.80;;;;;;;;;;4992478;28;20585;-76
2022/07/08 07:30:48;;;;;;;5.95;1.95;;;;;;;;;;4992430;28;20022;-75
2022/07/08 07:33:14;;;;;;;4.20;1.65;;;;;;;;;;4992368;28;20026;-75
2022/07/08 07:35:40;;;;;;;5.03;2.10;;;;;;;;;;4992595;28;20029;-74
2022/07/08 07:38:06;;;;;;;4.38;1.90;;;;;;;;;;4992137;28;20482;-75
2022/07/08 07:40:32;;;;;;;4.63;1.70;;;;;;;;;;4992396;28;20386;-75
2022/07/08 07:42:57;;;;;;;4.80;1.95;;;;;;;;;;4992261;28;20033;-74
2022/07/08 07:45:22;;;;;;;6.50;2.10;;;;;;;;;;4992119;28;20022;-75
2022/07/08 07:47:48;;;;;;;4.18;1.75;;;;;;;;;;4991715;28;20386;-75
2022/07/08 07:50:13;;;;;;;6.55;2.05;;;;;;;;;;4992241;28;20065;-74
2022/07/08 07:52:39;;;;;;;5.22;1.90;;;;;;;;;;4992124;28;20018;-75
2022/07/08 07:55:06;;;;;;;5.15;1.65;;;;;;;;;;4992263;28;20499;-74
2022/07/08 07:57:31;;;;;;;5.82;1.90;;;;;;;;;;4991650;28;20087;-74
2022/07/08 07:59:57;;;;;;;2.80;1.50;;;;;;;;;;4991924;28;20050;-75
2022/07/08 08:02:22;;;;;;;4.38;1.80;;;;;;;;;;4974327;28;20082;-74
2022/07/08 08:04:47;;;;;;;6.10;1.88;;;;;;;;;;4991684;28;20014;-74
2022/07/08 08:07:13;;;;;;;3.63;1.70;;;;;;;;;;4991708;28;20553;-73
2022/07/08 08:09:38;;;;;;;3.35;1.70;;;;;;;;;;4991859;28;20023;-73
2022/07/08 08:12:04;;;;;;;4.10;1.70;;;;;;;;;;4991966;28;20023;-74
2022/07/08 08:14:29;;;;;;;4.53;1.50;;;;;;;;;;4991737;28;20030;-73
2022/07/08 08:16:55;;;;;;;4.93;1.60;;;;;;;;;;4991701;28;20056;-73
2022/07/08 08:19:20;;;;;;;4.25;1.52;;;;;;;;;;4991474;28;20053;-73
2022/07/08 08:21:46;;;;;;;5.85;1.88;;;;;;;;;;4990856;28;20026;-73
2022/07/08 08:24:11;;;;;;;5.13;1.60;;;;;;;;;;4991398;28;20077;-74
2022/07/08 08:26:37;;;;;;;2.88;1.52;;;;;;;;;;4991580;28;20034;-74
2022/07/08 08:29:02;;;;;;;6.20;1.90;;;;;;;;;;4991277;28;20029;-74
2022/07/08 08:31:28;;;;;;;4.30;1.60;;;;;;;;;;4974043;28;20037;-73
2022/07/08 08:33:54;;;;;;;2.72;1.30;;;;;;;;;;4991361;28;20036;-75
2022/07/08 08:36:19;;;;;;;6.38;1.50;;;;;;;;;;4991304;28;20039;-74
2022/07/08 08:38:46;;;;;;;4.38;1.35;;;;;;;;;;4990600;28;20026;-75
2022/07/08 08:41:12;;;;;;;5.40;1.45;;;;;;;;;;4991270;28;20206;-74
2022/07/08 08:43:38;;;;;;;3.92;1.45;;;;;;;;;;4991287;28;20105;-74
2022/07/08 08:46:05;;;;;;;5.82;1.67;;;;;;;;;;4991255;28;20037;-75
2022/07/08 08:48:36;;;;;;;4.03;1.58;;;;;;;;;;4991185;28;20034;-73
2022/07/08 08:51:06;;;;;;;3.45;1.42;;;;;;;;;;4991249;28;20031;-73
2022/07/08 08:53:45;;;;;;;5.00;1.90;;;;;;;;;;4990820;28;20026;-74
2022/07/08 08:56:12;;;;;;;3.90;1.83;;;;;;;;;;4990873;28;20046;-74
2022/07/08 08:58:39;;;;;;;6.70;2.20;;;;;;;;;;4990748;28;20030;-74
2022/07/08 09:01:08;;;;;;;5.38;1.70;;;;;;;;;;4991063;28;20478;-73
2022/07/08 09:03:35;;;;;;;3.90;1.65;;;;;;;;;;4990890;28;20022;-73
2022/07/08 09:06:00;;;;;;;3.75;1.67;;;;;;;;;;4990816;28;20092;-73
2022/07/08 09:08:26;;;;;;;5.75;1.63;;;;;;;;;;4973442;28;20022;-73
2022/07/08 09:10:51;;;;;;;6.85;1.63;;;;;;;;;;4990771;28;20110;-74
2022/07/08 09:13:17;;;;;;;3.38;1.40;;;;;;;;;;4990823;28;20026;-73
2022/07/08 09:15:48;;;;;;;4.38;1.77;;;;;;;;;;4990975;28;20035;-73
2022/07/08 09:18:18;;;;;;;5.13;1.60;;;;;;;;;;4990651;28;20035;-75
2022/07/08 09:20:48;;;;;;;6.38;1.60;;;;;;;;;;4973417;28;20030;-73
2022/07/08 09:23:20;;;;;;;5.30;1.65;;;;;;;;;;4990765;28;20602;-73
2022/07/08 09:25:53;;;;;;;3.60;1.67;;;;;;;;;;4990233;28;20019;-74
2022/07/08 09:28:35;;;;;;;6.68;1.70;;;;;;;;;;4990468;28;20038;-74
2022/07/08 09:31:03;;;;;;;4.93;1.70;;;;;;;;;;4990494;28;20114;-73
2022/07/08 09:33:29;;;;;;;5.35;1.83;;;;;;;;;;4990610;28;20073;-72
2022/07/08 09:35:56;;;;;;;3.72;1.60;;;;;;;;;;4994526;28;20038;-72
2022/07/08 09:38:23;;;;;;;5.15;1.50;;;;;;;;;;4994592;28;20092;-75
2022/07/08 09:41:03;;;;;;;2.53;1.40;;;;;;;;;;4994621;28;20113;-75
2022/07/08 09:43:29;;;;;;;;;;;;;;;;;;4977565;28;20077;-74
2022/07/08 09:46:02;;;;;;;3.30;1.48;;;;;;;;;;4976665;28;19921;-74
2022/07/08 09:48:29;;;;;;;2.50;1.52;;;;;;;;;;4994307;28;20085;-74
2022/07/08 09:50:54;;;;;;;3.78;1.40;;;;;;;;;;4994439;28;20045;-75
2022/07/08 09:53:25;;;;;;;3.95;1.50;;;;;;;;;;4994347;28;20034;-73
2022/07/08 09:55:52;;;;;;;7.20;2.08;;;;;;;;;;4994010;28;20038;-76
2022/07/08 09:58:29;;;;;;;2.95;1.83;;;;;;;;;;4994600;28;20030;-75
2022/07/08 10:00:56;;;;;;;4.80;1.80;;;;;;;;;;4994275;28;20038;-76
2022/07/08 10:03:22;;;;;;;5.78;2.08;;;;;;;;;;4994134;28;20509;-76
2022/07/08 10:05:48;;;;;;;7.65;1.90;;;;;;;;;;4993494;28;20109;-78
2022/07/08 10:08:15;;;;;;;4.28;1.80;;;;;;;;;;4993887;28;20109;-77
2022/07/08 10:10:42;;;;;;;5.75;1.80;;;;;;;;;;4994134;28;20042;-74
2022/07/08 10:13:08;;;;;;;5.40;1.67;;;;;;;;;;4994184;28;20041;-78
2022/07/08 10:15:36;;;;;;;6.75;1.88;;;;;;;;;;4993844;28;20031;-77
2022/07/08 10:18:04;;;;;;;4.38;1.67;;;;;;;;;;4994109;28;20080;-75
2022/07/08 10:20:32;;;;;;;4.40;1.67;;;;;;;;;;4994127;28;20092;-75
2022/07/08 10:23:02;;;;;;;3.35;1.42;;;;;;;;;;4993600;28;20030;-75
2022/07/08 10:25:28;;;;;;;7.97;1.85;;;;;;;;;;4993691;28;20027;-74
2022/07/08 10:28:04;;;;;;;7.95;1.90;;;;;;;;;;4993744;28;20128;-75
2022/07/08 10:30:44;;;;;;;4.57;1.63;;;;;;;;;;4993737;28;20044;-75
2022/07/08 10:33:10;;;;;;;4.72;1.80;;;;;;;;;;4993834;28;20026;-74
2022/07/08 10:36:06;;;;;;;3.83;1.60;;;;;;;;;;4993566;28;20026;-75
2022/07/08 10:38:39;;;;;;;4.95;1.33;;;;;;;;;;4993375;28;20138;-74
2022/07/08 10:41:08;;;;;;;4.60;1.40;;;;;;;;;;4993484;28;20062;-75
2022/07/08 10:43:35;;;;;;;4.15;1.50;;;;;;;;;;4993562;28;20506;-75
2022/07/08 10:46:03;;;;;;;3.88;1.73;;;;;;;;;;4992786;28;20486;-75
2022/07/08 10:48:50;;;;;;;2.25;1.30;;;;;;;;;;4993532;28;20483;-76
2022/07/08 10:51:19;;;;;;;6.50;1.60;;;;;;;;;;4993390;28;20045;-76
2022/07/08 10:53:49;;;;;;;4.05;1.45;;;;;;;;;;4993094;28;20057;-75
2022/07/08 10:56:55;;;;;;;4.25;1.77;;;;;;;;;;4992748;28;20085;-75
2022/07/08 10:59:28;;;;;;;4.97;1.77;;;;;;;;;;4992933;28;20509;-75
2022/07/08 11:01:56;;;;;;;3.85;1.65;;;;;;;;;;4993292;28;20081;-75
2022/07/08 11:04:33;;;;;;;5.25;1.70;;;;;;;;;;4993080;28;20030;-74
2022/07/08 11:07:24;;;;;;;4.40;1.65;;;;;;;;;;4992716;28;20026;-75
2022/07/08 11:09:53;;;;;;;;;;;;;;;;;;4993234;28;20033;-76
2022/07/08 11:12:27;;;;;;;2.45;1.50;;;;;;;;;;4975447;28;19914;-74
2022/07/08 11:14:55;;;;;;;3.78;1.50;;;;;;;;;;4992566;28;20058;-75
2022/07/08 11:17:24;;;;;;;5.95;1.60;;;;;;;;;;4992889;28;20061;-74
2022/07/08 11:19:52;;;;;;;6.10;1.60;;;;;;;;;;4992715;28;20092;-74
2022/07/08 11:22:19;;;;;;;5.82;1.90;;;;;;;;;;4992835;28;20341;-74
2022/07/08 11:24:47;;;;;;;4.47;1.60;;;;;;;;;;4992707;28;20077;-75
2022/07/08 11:27:12;;;;;;;6.00;2.03;;;;;;;;;;4992880;28;20510;-73
2022/07/08 11:29:47;;;;;;;4.63;1.83;;;;;;;;;;4974930;28;20502;-75
2022/07/08 11:32:12;;;;;;;4.60;1.85;;;;;;;;;;4992577;28;20029;-74
2022/07/08 11:34:37;;;;;;;3.92;1.90;;;;;;;;;;4992409;28;20018;-74
2022/07/08 11:37:03;;;;;;;4.22;1.90;;;;;;;;;;4992431;28;20054;-75
2022/07/08 11:39:29;;;;;;;3.92;1.73;;;;;;;;;;4992552;28;20025;-75
2022/07/08 11:41:54;;;;;;;4.25;1.95;;;;;;;;;;4992233;28;20117;-78
2022/07/08 11:44:21;;;;;;;3.85;1.88;;;;;;;;;;4974940;28;20109;-75
2022/07/08 11:46:51;;;;;;;3.35;1.80;;;;;;;;;;4992030;28;20378;-74
2022/07/08 11:49:18;;;;;;;5.70;1.90;;;;;;;;;;4992129;28;20398;-75
2022/07/08 11:51:47;;;;;;;4.15;2.03;;;;;;;;;;4992026;28;20508;-77
2022/07/08 11:54:13;;;;;;;8.10;1.92;;;;;;;;;;4991944;28;20471;-75
2022/07/08 11:56:39;;;;;;;2.97;1.77;;;;;;;;;;4991103;28;20047;-74
2022/07/08 11:59:05;;;;;;;5.30;1.80;;;;;;;;;;4992100;28;20022;-75
2022/07/08 12:01:31;;;;;;;3.53;1.77;;;;;;;;;;4992116;28;20033;-74
2022/07/08 12:04:03;;;;;;;4.53;1.90;;;;;;;;;;4992162;28;20054;-76
2022/07/08 12:06:28;;;;;;;4.72;1.83;;;;;;;;;;4991361;28;20034;-74
2022/07/08 12:08:54;;;;;;;5.90;1.70;;;;;;;;;;4974189;28;20026;-74
2022/07/08 12:11:25;;;;;;;5.18;1.83;;;;;;;;;;4991736;28;20072;-73
2022/07/08 12:13:52;;;;;;;7.35;1.80;;;;;;;;;;4991758;28;20629;-73
2022/07/08 12:16:34;;;;;;;3.33;1.50;;;;;;;;;;4991554;28;20030;-73
2022/07/08 12:19:01;;;;;;;3.38;1.60;;;;;;;;;;4991657;28;20126;-74
2022/07/08 12:21:27;;;;;;;6.32;2.00;;;;;;;;;;4991650;28;20022;-73
2022/07/08 12:23:59;;;;;;;4.60;1.80;;;;;;;;;;4991314;28;20034;-73
2022/07/08 12:26:24;;;;;;;3.42;1.67;;;;;;;;;;4973770;28;20030;-75
2022/07/08 12:28:50;;;;;;;4.15;1.77;;;;;;;;;;4991576;28;20026;-72
2022/07/08 12:31:39;;;;;;;4.40;2.00;;;;;;;;;;4991626;28;20064;-72
2022/07/08 12:34:06;;;;;;;2.55;1.63;;;;;;;;;;4991555;28;20149;-73
2022/07/08 12:36:33;;;;;;;5.28;1.58;;;;;;;;;;4991292;28;20036;-72
2022/07/08 12:39:09;;;;;;;3.67;1.60;;;;;;;;;;4991091;28;20023;-73
2022/07/08 12:41:35;;;;;;;5.85;1.63;;;;;;;;;;4991131;28;20585;-72
2022/07/08 12:44:46;;;;;;;3.97;1.55;;;;;;;;;;4991263;28;20110;-72
2022/07/08 12:47:12;;;;;;;5.30;1.60;;;;;;;;;;4988059;28;20045;-72
2022/07/08 12:49:43;;;;;;;2.25;1.40;;;;;;;;;;4991236;28;20030;-72
2022/07/08 12:52:09;;;;;;;;;;;;;;;;;;4991576;28;20026;-73
2022/07/08 12:54:36;;;;;;;3.92;1.55;;;;;;;;;;4991131;28;19913;-74
2022/07/08 12:57:03;;;;;;;3.35;1.50;;;;;;;;;;4990660;28;20049;-74
2022/07/08 12:59:29;;;;;;;5.43;1.50;;;;;;;;;;4990875;28;20030;-73
2022/07/08 13:01:55;;;;;;;2.50;1.52;;;;;;;;;;4991171;28;20049;-73
2022/07/08 13:04:21;;;;;;;5.20;1.60;;;;;;;;;;4990853;28;20165;-72
2022/07/08 13:06:53;;;;;;;4.45;1.60;;;;;;;;;;4990614;28;20057;-73
2022/07/08 13:09:18;;;;;;;3.08;1.70;;;;;;;;;;4990844;28;20390;-73
2022/07/08 13:11:44;;;;;;;3.42;1.40;;;;;;;;;;4990878;28;20513;-73
2022/07/08 13:14:10;;;;;;;2.83;1.58;;;;;;;;;;4990899;28;20050;-72
2022/07/08 13:16:36;;;;;;;2.70;1.40;;;;;;;;;;4990459;28;20127;-73
2022/07/08 13:19:03;;;;;;;4.40;1.50;;;;;;;;;;4990709;28;20029;-73
2022/07/08 13:21:29;;;;;;;2.13;1.42;;;;;;;;;;4990865;28;20137;-76
2022/07/08 13:23:55;;;;;;;4.80;1.30;;;;;;;;;;4990768;28;20105;-76
2022/07/08 13:26:20;;;;;;;4.57;1.60;;;;;;;;;;4990686;28;20031;-76
2022/07/08 13:28:46;;;;;;;4.03;1.20;;;;;;;;;;4990659;28;20076;-76
2022/07/08 13:31:12;;;;;;;3.28;1.33;;;;;;;;;;4990588;28;20026;-76
2022/07/08 13:33:37;;;;;;;2.47;1.40;;;;;;;;;;4990568;28;20077;-74
2022/07/08 13:36:03;;;;;;;2.30;1.17;;;;;;;;;;4990535;28;20103;-74
2022/07/08 13:38:29;;;;;;;2.70;1.23;;;;;;;;;;4990455;28;20030;-74
2022/07/08 13:40:54;;;;;;;2.55;1.20;;;;;;;;;;4990649;28;20037;-75
2022/07/08 13:43:20;;;;;;;3.78;1.20;;;;;;;;;;4973209;28;20054;-72
2022/07/08 13:45:45;;;;;;;2.17;1.13;;;;;;;;;;4990603;28;20023;-76
2022/07/08 13:48:11;;;;;;;5.75;1.05;;;;;;;;;;4990356;28;20033;-75
2022/07/08 13:50:37;;;;;;;3.35;1.20;;;;;;;;;;4990495;28;20084;-75
2022/07/08 13:53:02;;;;;;;2.15;1.10;;;;;;;;;;4990255;28;20034;-75
2022/07/08 13:55:28;;;;;;;4.75;1.10;;;;;;;;;;4990286;28;20030;-76
2022/07/08 13:57:53;;;;;;;2.83;1.02;;;;;;;;;;4990348;28;20108;-76
2022/07/08 14:00:19;;;;;;;2.72;1.13;;;;;;;;;;4990685;28;20035;-76
2022/07/08 14:02:44;;;;;;;2.88;1.10;;;;;;;;;;4990442;28;20113;-76
2022/07/08 14:05:10;;;;;;;4.13;1.00;;;;;;;;;;4990665;28;20031;-75
2022/07/08 14:07:36;;;;;;;2.67;1.10;;;;;;;;;;4989861;28;20038;-75
2022/07/08 14:10:01;;;;;;;3.58;1.10;;;;;;;;;;4990380;28;20027;-74
2022/07/08 14:12:27;;;;;;;4.03;1.10;;;;;;;;;;4990352;28;20027;-74
2022/07/08 14:14:52;;;;;;;3.53;1.05;;;;;;;;;;4990356;28;20070;-73
2022/07/08 14:17:18;;;;;;;4.22;0.93;;;;;;;;;;4990005;28;20111;-74
2022/07/08 14:19:43;;;;;;;4.45;1.10;;;;;;;;;;4990570;28;20027;-74
2022/07/08 14:22:09;;;;;;;4.18;0.88;;;;;;;;;;4993899;28;20026;-76
2022/07/08 14:24:35;;;;;;;1.80;1.00;;;;;;;;;;4993853;28;20114;-76
2022/07/08 14:27:02;;;;;;;2.88;0.88;;;;;;;;;;4993484;28;20121;-75
2022/07/08 14:29:27;;;;;;;4.07;0.98;;;;;;;;;;4993642;28;20053;-75
2022/07/08 14:31:53;;;;;;;1.58;0.80;;;;;;;;;;4993792;28;20418;-75
2022/07/08 14:34:19;;;;;;;2.00;1.00;;;;;;;;;;4993766;28;20026;-75
2022/07/08 14:36:44;;;;;;;2.63;1.00;;;;;;;;;;4993565;28;20053;-75
2022/07/08 14:39:10;;;;;;;2.80;1.00;;;;;;;;;;4993721;28;20025;-74
2022/07/08 14:41:35;;;;;;;2.92;1.20;;;;;;;;;;4993439;28;20033;-74
2022/07/08 14:44:01;;;;;;;1.52;0.90;;;;;;;;;;4993335;28;20060;-74
2022/07/08 14:46:26;;;;;;;3.63;0.93;;;;;;;;;;4975641;28;20450;-73